Time;durP1;ratioP1;P1;durP2;ratioP2;P2;SDS_P1;SDS_P2;PMS_P1;PMS_P2;Temp;Humidity;BMP_temperature;BMP_pressure;BME280_temperature;BME280_humidity;BME280_pressure;Samples;Min_cycle;Max_cycle;Signal;HPM_P1;HPM_P2
2022/10/11 00:01:37;;;;;;;24.80;9.25;;;;;;;5.15;100.00;102297.22;5071295;28;21584;-62
2022/10/11 00:04:03;;;;;;;22.33;8.23;;;;;;;5.10;100.00;102300.44;5070999;28;20020;-64
2022/10/11 00:06:28;;;;;;;23.23;8.50;;;;;;;5.07;100.00;102303.84;5070439;28;20086;-63
2022/10/11 00:08:53;;;;;;;24.67;8.50;;;;;;;5.08;100.00;102300.38;5071111;28;20020;-62
2022/10/11 00:11:19;;;;;;;22.40;7.85;;;;;;;5.03;100.00;102302.78;5071514;28;20028;-62
2022/10/11 00:13:44;;;;;;;25.08;7.85;;;;;;;5.04;100.00;102296.72;5071469;28;20044;-62
2022/10/11 00:16:11;;;;;;;20.73;7.43;;;;;;;5.01;100.00;102290.41;5070998;28;20024;-63
2022/10/11 00:18:38;;;;;;;21.42;7.43;;;;;;;5.01;100.00;102293.03;5070535;28;20029;-62
2022/10/11 00:21:06;;;;;;;24.27;8.43;;;;;;;5.07;100.00;102301.22;5071168;28;20372;-63
2022/10/11 00:23:32;;;;;;;27.67;9.43;;;;;;;5.15;100.00;102299.84;5071350;28;20024;-62
2022/10/11 00:26:03;;;;;;;23.58;9.45;;;;;;;5.14;100.00;102303.31;5073090;28;20028;-62
2022/10/11 00:28:29;;;;;;;24.17;8.65;;;;;;;5.03;100.00;102302.78;5074861;28;20031;-65
2022/10/11 00:30:55;;;;;;;22.38;7.88;;;;;;;4.93;100.00;102290.03;5074673;28;20048;-63
2022/10/11 00:33:20;;;;;;;21.65;7.72;;;;;;;4.91;100.00;102302.16;5074537;28;20471;-63
2022/10/11 00:35:46;;;;;;;20.45;7.22;;;;;;;4.85;100.00;102310.63;5074023;28;20028;-63
2022/10/11 00:38:11;;;;;;;22.08;7.40;;;;;;;4.78;100.00;102305.00;5074514;28;20633;-63
2022/10/11 00:40:36;;;;;;;20.55;7.00;;;;;;;4.72;100.00;102310.81;5074263;28;20024;-63
2022/10/11 00:43:02;;;;;;;23.08;7.22;;;;;;;4.67;100.00;102318.41;5074193;28;20375;-62
2022/10/11 00:45:30;;;;;;;21.27;7.50;;;;;;;4.63;100.00;102319.09;5074270;28;20028;-62
2022/10/11 00:48:01;;;;;;;21.05;7.32;;;;;;;4.58;100.00;102317.94;5074432;28;20089;-63
2022/10/11 00:50:29;;;;;;;19.65;7.07;;;;;;;4.60;100.00;102320.63;5074287;28;20028;-62
2022/10/11 00:52:58;;;;;;;23.27;8.43;;;;;;;4.54;100.00;102319.50;5074211;28;20127;-63
2022/10/11 00:55:28;;;;;;;22.73;8.90;;;;;;;4.51;100.00;102327.22;5073175;28;20116;-63
2022/10/11 00:57:55;;;;;;;23.58;8.60;;;;;;;4.44;100.00;102332.03;5074539;28;20056;-63
2022/10/11 01:00:21;;;;;;;21.85;8.13;;;;;;;4.40;100.00;102323.13;5074055;28;20495;-63
2022/10/11 01:02:46;;;;;;;23.15;8.50;;;;;;;4.50;100.00;102328.03;5074283;28;20063;-63
2022/10/11 01:05:15;;;;;;;24.05;8.45;;;;;;;4.55;100.00;102328.25;5073211;28;20024;-62
2022/10/11 01:07:41;;;;;;;23.40;8.77;;;;;;;4.58;100.00;102327.53;5073481;28;20048;-62
2022/10/11 01:10:07;;;;;;;24.20;8.88;;;;;;;4.61;100.00;102331.19;5073924;28;20036;-62
2022/10/11 01:12:33;;;;;;;20.70;7.95;;;;;;;4.50;100.00;102335.88;5074471;28;20025;-63
2022/10/11 01:15:22;;;;;;;22.45;8.93;;;;;;;4.52;100.00;102333.34;5073141;28;20056;-63
2022/10/11 01:17:56;;;;;;;23.15;8.63;;;;;;;4.48;100.00;102332.25;5071145;28;20029;-63
2022/10/11 01:20:54;;;;;;;25.08;8.98;;;;;;;4.40;100.00;102341.44;5072200;28;20119;-64
2022/10/11 01:23:44;;;;;;;24.85;9.68;;;;;;;4.37;100.00;102328.19;5073575;28;20368;-64
2022/10/11 01:26:30;;;;;;;24.25;9.00;;;;;;;4.28;100.00;102333.84;5072892;28;20028;-64
2022/10/11 01:29:17;;;;;;;21.10;8.13;;;;;;;4.22;100.00;102337.84;5072092;28;20085;-65
2022/10/11 01:32:09;;;;;;;23.35;8.02;;;;;;;4.17;100.00;102333.25;5072557;28;20501;-63
2022/10/11 01:35:07;;;;;;;20.45;7.65;;;;;;;4.17;100.00;102335.84;5010660;28;20057;-63
2022/10/11 01:37:41;;;;;;;20.42;7.40;;;;;;;4.17;100.00;102340.22;5010736;28;20314;-65
2022/10/11 01:40:16;;;;;;;23.42;8.73;;;;;;;4.30;100.00;102342.66;5011227;28;20030;-64
2022/10/11 01:42:42;;;;;;;22.73;8.25;;;;;;;4.27;100.00;102344.22;5011132;28;20453;-63
2022/10/11 01:45:13;;;;;;;24.10;9.40;;;;;;;4.25;100.00;102345.84;5010858;28;20038;-65
2022/10/11 01:47:41;;;;;;;23.67;8.63;;;;;;;4.16;100.00;102341.00;5011254;28;20060;-64
2022/10/11 01:50:35;;;;;;;22.65;8.82;;;;;;;4.14;100.00;102340.03;5010877;28;20075;-65
2022/10/11 01:53:10;;;;;;;20.35;7.70;;;;;;;4.02;100.00;102348.13;5011291;28;20042;-65
2022/10/11 01:56:05;;;;;;;23.77;8.20;;;;;;;4.11;100.00;102340.78;5010280;28;20065;-65
2022/10/11 01:58:52;;;;;;;21.05;7.88;;;;;;;4.05;100.00;102347.38;4969470;28;20414;-64
2022/10/11 02:01:33;;;;;;;21.92;8.00;;;;;;;4.01;100.00;102349.81;4972315;28;20045;-62
2022/10/11 02:04:24;;;;;;;21.80;8.77;;;;;;;4.17;100.00;102348.06;4969397;28;20047;-64
2022/10/11 02:07:04;;;;;;;21.08;8.25;;;;;;;4.10;100.00;102346.81;4894866;29;20055;-64
2022/10/11 02:09:53;;;;;;;23.35;8.50;;;;;;;4.08;100.00;102351.06;4894773;29;20057;-64
2022/10/11 02:12:35;;;;;;;22.38;8.70;;;;;;;4.09;100.00;102362.44;4924212;29;20071;-63
2022/10/11 02:15:02;;;;;;;26.40;11.00;;;;;;;4.18;100.00;102352.50;4932412;29;20055;-62
2022/10/11 02:17:34;;;;;;;25.17;10.80;;;;;;;4.15;100.00;102347.97;4933142;29;20334;-63
2022/10/11 02:20:05;;;;;;;26.38;11.40;;;;;;;4.14;100.00;102361.88;4930442;29;20458;-62
2022/10/11 02:22:34;;;;;;;24.58;10.43;;;;;;;4.00;100.00;102354.97;4933212;29;20099;-62
2022/10/11 02:25:04;;;;;;;22.92;8.50;;;;;;;3.88;100.00;102367.41;4932774;29;20051;-62
2022/10/11 02:27:32;;;;;;;23.70;10.20;;;;;;;3.86;100.00;102358.53;4932812;29;20035;-62
2022/10/11 02:30:01;;;;;;;23.77;9.63;;;;;;;3.77;100.00;102356.31;4932917;29;20067;-62
2022/10/11 02:32:29;;;;;;;23.88;9.55;;;;;;;3.75;100.00;102368.41;4931233;29;20474;-62
2022/10/11 02:34:57;;;;;;;23.33;9.10;;;;;;;3.70;100.00;102362.00;4941263;28;20046;-62
2022/10/11 02:37:51;;;;;;;23.52;9.15;;;;;;;3.69;100.00;102361.13;4971333;28;20039;-62
2022/10/11 02:40:34;;;;;;;22.92;9.95;;;;;;;3.71;100.00;102363.81;4970026;28;20485;-62
2022/10/11 02:43:00;;;;;;;;;;;;;;;3.70;100.00;102356.78;4963348;28;20491;-62
2022/10/11 02:45:45;;;;;;;22.58;9.07;;;;;;;3.68;100.00;102361.91;5072115;28;19960;-62
2022/10/11 02:48:11;;;;;;;24.50;8.85;;;;;;;3.60;100.00;102358.88;5071300;28;20032;-61
2022/10/11 02:50:39;;;;;;;22.33;8.82;;;;;;;3.56;100.00;102358.63;5072107;28;20437;-62
2022/10/11 02:53:06;;;;;;;21.75;7.60;;;;;;;3.56;100.00;102358.63;5070607;28;20111;-61
2022/10/11 02:55:31;;;;;;;19.88;7.88;;;;;;;3.46;100.00;102355.47;5071314;28;20032;-62
2022/10/11 02:57:56;;;;;;;22.27;8.52;;;;;;;3.41;100.00;102356.94;5072119;28;20047;-62
2022/10/11 03:00:22;;;;;;;21.10;8.20;;;;;;;3.35;100.00;102356.59;5071899;28;20060;-62
2022/10/11 03:02:47;;;;;;;22.67;8.40;;;;;;;3.36;100.00;102365.31;5071517;28;20117;-65
2022/10/11 03:05:13;;;;;;;20.55;8.00;;;;;;;3.29;100.00;102359.72;5071621;28;20105;-65
2022/10/11 03:07:38;;;;;;;21.70;8.05;;;;;;;3.27;100.00;102363.06;5071539;28;20100;-62
2022/10/11 03:10:04;;;;;;;20.15;7.68;;;;;;;3.27;100.00;102355.22;5071639;28;20036;-65
2022/10/11 03:12:29;;;;;;;20.02;7.93;;;;;;;3.22;100.00;102362.81;5071150;28;20095;-64
2022/10/11 03:14:55;;;;;;;21.40;8.00;;;;;;;3.22;100.00;102369.72;5071369;28;20052;-64
2022/10/11 03:17:20;;;;;;;22.30;8.10;;;;;;;3.21;100.00;102371.44;5071263;28;20164;-62
2022/10/11 03:19:46;;;;;;;20.48;7.88;;;;;;;3.19;100.00;102374.78;5070946;28;20108;-64
2022/10/11 03:22:11;;;;;;;23.17;8.93;;;;;;;3.20;100.00;102374.84;5071699;28;20032;-64
2022/10/11 03:24:37;;;;;;;22.40;8.07;;;;;;;3.15;100.00;102373.69;5071704;28;20052;-65
2022/10/11 03:27:02;;;;;;;21.02;7.93;;;;;;;3.12;100.00;102377.03;5071391;28;20035;-64
2022/10/11 03:29:27;;;;;;;22.73;8.27;;;;;;;3.07;100.00;102373.25;5071606;28;20031;-64
2022/10/11 03:31:53;;;;;;;20.88;7.85;;;;;;;3.09;100.00;102375.97;5070928;28;20025;-64
2022/10/11 03:34:19;;;;;;;22.92;8.55;;;;;;;3.10;100.00;102378.66;5070891;28;20475;-65
2022/10/11 03:36:45;;;;;;;20.80;7.75;;;;;;;3.03;100.00;102380.78;5071607;28;20054;-64
2022/10/11 03:39:10;;;;;;;20.92;7.95;;;;;;;2.99;100.00;102378.84;5071903;28;20028;-64
2022/10/11 03:41:35;;;;;;;20.13;7.45;;;;;;;3.00;100.00;102389.38;5071741;28;20082;-65
2022/10/11 03:44:01;;;;;;;21.73;8.50;;;;;;;3.01;100.00;102382.44;5070988;28;20025;-65
2022/10/11 03:46:26;;;;;;;22.02;8.13;;;;;;;3.02;100.00;102384.25;5071362;28;20086;-61
2022/10/11 03:48:51;;;;;;;23.35;9.65;;;;;;;3.01;100.00;102383.31;5071010;28;20035;-64
2022/10/11 03:51:16;;;;;;;23.67;9.52;;;;;;;3.03;100.00;102384.34;5072047;28;20119;-65
2022/10/11 03:53:42;;;;;;;23.67;9.75;;;;;;;2.94;100.00;102391.59;5071410;28;20725;-65
2022/10/11 03:56:08;;;;;;;22.23;8.73;;;;;;;2.87;100.00;102392.03;5070414;28;20039;-61
2022/10/11 03:58:33;;;;;;;23.48;9.90;;;;;;;2.87;100.00;102394.66;5071524;28;20055;-64
2022/10/11 04:00:58;;;;;;;22.05;9.05;;;;;;;2.91;100.00;102396.66;5073319;28;20047;-65
2022/10/11 04:03:24;;;;;;;23.05;9.13;;;;;;;2.86;100.00;102387.66;5074839;28;20031;-62
2022/10/11 04:05:49;;;;;;;23.25;9.52;;;;;;;2.87;100.00;102405.09;5074759;28;20029;-64
2022/10/11 04:08:15;;;;;;;23.20;9.90;;;;;;;2.87;100.00;102400.78;5074637;28;20115;-64
2022/10/11 04:10:40;;;;;;;23.40;10.02;;;;;;;2.87;100.00;102399.88;5074947;28;20063;-63
2022/10/11 04:13:06;;;;;;;22.48;9.30;;;;;;;2.84;100.00;102399.69;5075122;28;20031;-64
2022/10/11 04:15:31;;;;;;;22.80;9.85;;;;;;;2.84;100.00;102394.47;5073545;28;20053;-64
2022/10/11 04:17:56;;;;;;;23.13;10.05;;;;;;;2.78;100.00;102400.22;5074781;28;20378;-62
2022/10/11 04:20:22;;;;;;;22.63;9.30;;;;;;;2.77;100.00;102403.66;5074309;28;20180;-64
2022/10/11 04:22:47;;;;;;;24.42;9.73;;;;;;;2.73;100.00;102410.41;5075120;28;20055;-62
2022/10/11 04:25:13;;;;;;;22.35;9.88;;;;;;;2.71;100.00;102416.31;5074335;28;20048;-64
2022/10/11 04:27:38;;;;;;;22.35;9.57;;;;;;;2.71;100.00;102414.63;5074971;28;20112;-65
2022/10/11 04:30:04;;;;;;;23.25;10.00;;;;;;;2.68;100.00;102417.06;5074526;28;20376;-64
2022/10/11 04:32:30;;;;;;;23.73;9.65;;;;;;;2.61;100.00;102422.72;5074018;28;20099;-63
2022/10/11 04:34:55;;;;;;;22.25;9.57;;;;;;;2.54;100.00;102423.13;5073880;28;20024;-62
2022/10/11 04:37:20;;;;;;;23.02;9.75;;;;;;;2.54;100.00;102423.13;5074352;28;20068;-62
2022/10/11 04:39:46;;;;;;;24.80;10.27;;;;;;;2.50;100.00;102431.56;5073435;28;20452;-66
2022/10/11 04:42:11;;;;;;;21.40;9.65;;;;;;;2.53;100.00;102434.38;5074336;28;20021;-66
2022/10/11 04:44:36;;;;;;;23.75;10.20;;;;;;;2.54;100.00;102423.13;5073664;28;20021;-65
2022/10/11 04:47:03;;;;;;;24.05;10.32;;;;;;;2.55;100.00;102431.06;5072594;28;20028;-66
2022/10/11 04:49:28;;;;;;;23.92;10.90;;;;;;;2.57;100.00;102432.03;5074081;28;20035;-66
2022/10/11 04:51:54;;;;;;;22.48;10.05;;;;;;;2.50;100.00;102431.56;5074051;28;20020;-65
2022/10/11 04:54:19;;;;;;;22.38;10.48;;;;;;;2.55;100.00;102437.97;5074493;28;20032;-65
2022/10/11 04:56:44;;;;;;;23.77;10.70;;;;;;;2.53;100.00;102434.38;5073272;28;20024;-66
2022/10/11 04:59:10;;;;;;;22.80;10.40;;;;;;;2.55;100.00;102438.91;5072511;28;20036;-65
2022/10/11 05:01:35;;;;;;;24.05;10.20;;;;;;;2.56;100.00;102442.41;5073997;28;20043;-65
2022/10/11 05:04:01;;;;;;;23.85;10.77;;;;;;;2.50;100.00;102432.47;5074267;28;20068;-65
2022/10/11 05:06:26;;;;;;;23.50;11.02;;;;;;;2.50;100.00;102434.19;5073510;28;20024;-67
2022/10/11 05:08:52;;;;;;;22.05;10.40;;;;;;;2.45;100.00;102433.91;5073425;28;20033;-66
2022/10/11 05:11:17;;;;;;;24.80;11.43;;;;;;;2.50;100.00;102439.41;5073224;28;20032;-65
2022/10/11 05:13:44;;;;;;;27.33;12.75;;;;;;;2.56;100.00;102439.78;5073532;28;20052;-64
2022/10/11 05:16:10;;;;;;;24.48;11.32;;;;;;;2.51;100.00;102441.22;5073099;28;20032;-63
2022/10/11 05:18:35;;;;;;;26.33;11.93;;;;;;;2.48;100.00;102433.19;5073559;28;20482;-63
2022/10/11 05:21:04;;;;;;;24.52;11.05;;;;;;;2.46;100.00;102447.84;5073469;28;20027;-62
2022/10/11 05:23:30;;;;;;;25.52;12.50;;;;;;;2.45;100.00;102444.34;5072256;28;20031;-63
2022/10/11 05:25:56;;;;;;;24.90;12.88;;;;;;;2.52;100.00;102443.00;5073400;28;20031;-63
2022/10/11 05:28:22;;;;;;;25.70;12.65;;;;;;;2.46;100.00;102453.06;5073349;28;20025;-62
2022/10/11 05:30:47;;;;;;;25.83;13.00;;;;;;;2.46;100.00;102442.63;5073410;28;20403;-62
2022/10/11 05:33:12;;;;;;;24.23;12.55;;;;;;;2.43;100.00;102449.47;5072980;28;20063;-62
2022/10/11 05:35:38;;;;;;;25.13;12.18;;;;;;;2.39;100.00;102444.84;5073404;28;20075;-63
2022/10/11 05:38:03;;;;;;;25.02;12.40;;;;;;;2.40;100.00;102444.06;5073175;28;20067;-62
2022/10/11 05:40:28;;;;;;;24.58;12.10;;;;;;;2.35;100.00;102450.69;5073261;28;20025;-62
2022/10/11 05:42:54;;;;;;;24.42;11.85;;;;;;;2.30;100.00;102461.63;5073142;28;20055;-62
2022/10/11 05:45:19;;;;;;;24.80;11.70;;;;;;;2.32;100.00;102450.50;5072416;28;20035;-62
2022/10/11 05:47:44;;;;;;;26.23;11.60;;;;;;;2.34;100.00;102464.53;5073067;28;20029;-62
2022/10/11 05:50:10;;;;;;;25.92;12.38;;;;;;;2.30;100.00;102466.84;5073111;28;20047;-62
2022/10/11 05:52:35;;;;;;;23.58;11.88;;;;;;;2.31;100.00;102466.06;5073116;28;20194;-63
2022/10/11 05:55:02;;;;;;;24.38;11.98;;;;;;;2.28;100.00;102464.16;5072439;28;20021;-63
2022/10/11 05:57:27;;;;;;;26.50;12.70;;;;;;;2.25;100.00;102469.19;5072640;28;20036;-62
2022/10/11 05:59:52;;;;;;;25.08;12.70;;;;;;;2.25;100.00;102475.28;5072936;28;20036;-62
2022/10/11 06:02:18;;;;;;;25.20;12.00;;;;;;;2.25;100.00;102469.19;5072976;28;20056;-62
2022/10/11 06:04:43;;;;;;;23.27;11.13;;;;;;;2.30;100.00;102475.59;5072709;28;20021;-63
2022/10/11 06:07:08;;;;;;;24.25;12.82;;;;;;;2.38;100.00;102484.81;5072779;28;20447;-63
2022/10/11 06:09:34;;;;;;;26.52;13.07;;;;;;;2.35;100.00;102489.84;5072377;28;20035;-63
2022/10/11 06:12:00;;;;;;;25.33;12.40;;;;;;;2.37;100.00;102475.16;5072309;28;20037;-62
2022/10/11 06:14:25;;;;;;;26.02;12.82;;;;;;;2.39;100.00;102489.22;5072457;28;20072;-63
2022/10/11 06:16:51;;;;;;;24.55;12.20;;;;;;;2.38;100.00;102487.41;5072061;28;21116;-63
2022/10/11 06:19:16;;;;;;;25.88;12.60;;;;;;;2.43;100.00;102490.31;5072617;28;20036;-63
2022/10/11 06:22:10;;;;;;;25.20;12.75;;;;;;;2.42;100.00;102485.94;5029605;28;20062;-62
2022/10/11 06:24:36;;;;;;;26.52;12.43;;;;;;;2.41;100.00;102490.22;5033629;28;20087;-63
2022/10/11 06:27:01;;;;;;;25.05;12.60;;;;;;;2.46;100.00;102502.66;5034485;28;20029;-62
2022/10/11 06:29:26;;;;;;;25.83;12.75;;;;;;;2.48;100.00;102499.34;5030005;28;20030;-62
2022/10/11 06:31:51;;;;;;;25.90;12.88;;;;;;;2.49;100.00;102501.19;5033660;28;20037;-63
2022/10/11 06:34:17;;;;;;;25.88;13.27;;;;;;;2.52;100.00;102506.59;5028874;28;20033;-62
2022/10/11 06:36:42;;;;;;;27.10;12.57;;;;;;;2.54;100.00;102509.28;5025306;28;20063;-63
2022/10/11 06:39:07;;;;;;;25.65;13.05;;;;;;;2.60;100.00;102509.69;5023826;28;20065;-62
2022/10/11 06:41:33;;;;;;;27.77;14.45;;;;;;;2.69;100.00;102507.63;5029699;28;20160;-62
2022/10/11 06:43:58;;;;;;;27.10;13.57;;;;;;;2.75;100.00;102514.97;5029532;28;20037;-62
2022/10/11 06:46:26;;;;;;;25.65;13.98;;;;;;;2.84;100.00;102509.41;5034479;28;20032;-62
2022/10/11 06:48:51;;;;;;;28.33;15.80;;;;;;;3.00;100.00;102520.03;5031214;28;20060;-62
2022/10/11 06:51:19;;;;;;;29.17;15.65;;;;;;;3.06;100.00;102514.25;5035156;28;20092;-63
2022/10/11 06:53:49;;;;;;;27.15;14.10;;;;;;;3.10;100.00;102517.16;5028759;28;20496;-61
2022/10/11 06:56:14;;;;;;;26.48;14.50;;;;;;;3.20;100.00;102516.00;5030633;28;20167;-62
2022/10/11 06:58:39;;;;;;;27.15;13.93;;;;;;;3.27;100.00;102519.91;5063592;28;20029;-62
2022/10/11 07:01:07;;;;;;;27.58;14.25;;;;;;;3.39;100.00;102518.00;5072122;28;20028;-62
2022/10/11 07:03:33;;;;;;;25.48;13.43;;;;;;;3.52;100.00;102518.78;5071397;28;20471;-62
2022/10/11 07:06:07;;;;;;;26.33;13.02;;;;;;;3.63;100.00;102528.16;5070956;28;20035;-62
2022/10/11 07:08:33;;;;;;;27.10;14.18;;;;;;;3.73;100.00;102524.34;5066802;28;20024;-63
2022/10/11 07:11:00;;;;;;;27.48;13.68;;;;;;;3.81;100.00;102531.84;5068636;28;20043;-63
2022/10/11 07:13:26;;;;;;;25.40;12.90;;;;;;;3.97;100.00;102524.91;5068723;28;20024;-63
2022/10/11 07:15:51;;;;;;;26.67;13.57;;;;;;;4.13;100.00;102524.97;5070123;28;20399;-61
2022/10/11 07:18:17;;;;;;;25.70;13.68;;;;;;;4.23;100.00;102528.13;5069809;28;20028;-64
2022/10/11 07:20:42;;;;;;;26.38;14.70;;;;;;;4.34;100.00;102527.94;5070260;28;20120;-62
2022/10/11 07:23:07;;;;;;;27.00;15.40;;;;;;;4.45;100.00;102536.38;5069940;28;20032;-62
2022/10/11 07:25:32;;;;;;;28.05;16.20;;;;;;;4.55;100.00;102537.81;5068583;28;20029;-61
2022/10/11 07:27:58;;;;;;;26.88;16.02;;;;;;;4.63;100.00;102535.59;5070266;28;20025;-62
2022/10/11 07:30:23;;;;;;;29.42;16.77;;;;;;;4.75;100.00;102541.53;5070291;28;20097;-61
2022/10/11 07:32:48;;;;;;;28.52;17.42;;;;;;;4.92;100.00;102541.56;5070744;28;20040;-63
2022/10/11 07:35:14;;;;;;;30.02;18.70;;;;;;;5.03;100.00;102549.16;5073361;28;20483;-62
2022/10/11 07:37:39;;;;;;;31.38;19.35;;;;;;;5.21;100.00;102543.13;5073977;28;20032;-63
2022/10/11 07:40:09;;;;;;;30.52;19.42;;;;;;;5.38;100.00;102542.28;5075121;28;20024;-62
2022/10/11 07:42:35;;;;;;;31.77;20.02;;;;;;;5.52;100.00;102547.34;5075253;28;20110;-62
2022/10/11 07:45:00;;;;;;;31.23;20.80;;;;;;;5.68;100.00;102549.03;5075682;28;20032;-62
2022/10/11 07:47:25;;;;;;;34.55;20.15;;;;;;;5.80;100.00;102547.06;5074952;28;20054;-62
2022/10/11 07:49:50;;;;;;;32.33;19.90;;;;;;;5.94;100.00;102545.13;5074845;28;20051;-62
2022/10/11 07:52:16;;;;;;;32.45;20.60;;;;;;;6.12;100.00;102547.81;5075331;28;20032;-62
2022/10/11 07:54:41;;;;;;;30.73;18.88;;;;;;;6.25;100.00;102547.59;5074698;28;20105;-63
2022/10/11 07:57:06;;;;;;;31.75;19.10;;;;;;;6.41;100.00;102556.25;5074768;28;20467;-63
2022/10/11 07:59:32;;;;;;;30.63;19.05;;;;;;;6.63;100.00;102555.53;5075773;28;20036;-62
2022/10/11 08:01:57;;;;;;;31.55;19.45;;;;;;;6.73;100.00;102551.63;5075131;28;20033;-64
2022/10/11 08:04:22;;;;;;;32.97;19.35;;;;;;;6.83;100.00;102553.88;5075096;28;20036;-63
2022/10/11 08:06:47;;;;;;;28.48;16.88;;;;;;;6.92;100.00;102564.81;5074545;28;20541;-64
2022/10/11 08:09:13;;;;;;;28.55;17.10;;;;;;;7.03;100.00;102560.03;5074621;28;20548;-64
2022/10/11 08:11:38;;;;;;;29.45;17.98;;;;;;;7.16;100.00;102569.38;5074989;28;20024;-64
2022/10/11 08:14:07;;;;;;;28.55;15.85;;;;;;;7.22;100.00;102564.41;5074820;28;20483;-62
2022/10/11 08:16:37;;;;;;;29.73;13.95;;;;;;;7.25;100.00;102572.47;5074232;28;20033;-61
2022/10/11 08:19:04;;;;;;;27.17;13.13;;;;;;;7.44;100.00;102573.25;5071872;28;20051;-62
2022/10/11 08:21:29;;;;;;;28.33;12.60;;;;;;;7.60;100.00;102578.41;5074859;28;20020;-62
2022/10/11 08:23:55;;;;;;;25.50;12.00;;;;;;;7.70;100.00;102569.16;5074411;28;20027;-62
2022/10/11 08:26:21;;;;;;;25.55;12.02;;;;;;;7.83;100.00;102570.59;5072995;28;20048;-61
2022/10/11 08:28:46;;;;;;;27.88;11.73;;;;;;;7.89;100.00;102569.97;5074508;28;20029;-62
2022/10/11 08:31:14;;;;;;;25.67;11.15;;;;;;;8.06;100.00;102568.94;5073681;28;20029;-62
2022/10/11 08:33:40;;;;;;;25.48;11.02;;;;;;;8.29;100.00;102563.75;5073055;28;20068;-61
2022/10/11 08:36:06;;;;;;;27.38;12.57;;;;;;;8.61;100.00;102565.06;5074612;28;20066;-60
2022/10/11 08:38:32;;;;;;;24.33;10.43;;;;;;;9.08;100.00;102578.31;5074070;28;20460;-65
2022/10/11 08:40:58;;;;;;;23.52;10.10;;;;;;;9.59;100.00;102582.81;5074818;28;20100;-61
2022/10/11 08:43:48;;;;;;;23.88;9.65;;;;;;;9.91;100.00;102577.78;5074032;28;20025;-66
2022/10/11 08:46:15;;;;;;;23.27;8.40;;;;;;;9.88;100.00;102577.66;5070978;28;20024;-61
2022/10/11 08:48:45;;;;;;;23.38;7.95;;;;;;;9.88;100.00;102575.03;5073318;28;20031;-62
2022/10/11 08:51:32;;;;;;;25.25;8.70;;;;;;;9.96;100.00;102578.84;5072819;28;20455;-63
2022/10/11 08:54:05;;;;;;;23.80;7.97;;;;;;;10.01;100.00;102582.53;5074062;28;20024;-61
2022/10/11 08:56:34;;;;;;;23.80;8.40;;;;;;;9.97;100.00;102579.72;5074090;28;20028;-62
2022/10/11 08:59:33;;;;;;;23.80;8.93;;;;;;;10.09;100.00;102590.72;5073232;28;20028;-62
2022/10/11 09:02:14;;;;;;;23.25;8.27;;;;;;;10.20;100.00;102586.69;5010318;28;20088;-61
2022/10/11 09:04:39;;;;;;;24.60;8.15;;;;;;;10.39;100.00;102588.22;5011646;28;20037;-61
2022/10/11 09:07:32;;;;;;;22.05;7.72;;;;;;;10.58;100.00;102597.66;5014028;28;20092;-61
2022/10/11 09:10:27;;;;;;;21.98;7.60;;;;;;;10.74;100.00;102592.88;5012141;28;20091;-61
2022/10/11 09:13:12;;;;;;;22.33;6.38;;;;;;;10.81;100.00;102600.16;5009384;28;20042;-61
2022/10/11 09:15:50;;;;;;;20.60;6.10;;;;;;;11.20;100.00;102594.28;5010795;28;20073;-62
2022/10/11 09:18:41;;;;;;;24.42;6.18;;;;;;;11.55;100.00;102597.03;5011578;28;20627;-61
2022/10/11 09:21:31;;;;;;;21.10;5.97;;;;;;;11.65;100.00;102599.09;5011043;28;20176;-63
2022/10/11 09:24:12;;;;;;;19.13;4.80;;;;;;;11.69;100.00;102605.34;5012126;28;20022;-61
2022/10/11 09:26:54;;;;;;;21.23;5.10;;;;;;;11.80;100.00;102598.59;4994720;28;20079;-63
2022/10/11 09:29:58;;;;;;;21.35;5.00;;;;;;;11.85;100.00;102591.69;5011891;28;20038;-61
2022/10/11 09:32:29;;;;;;;21.00;5.38;;;;;;;12.00;100.00;102600.94;5008136;28;20104;-63
2022/10/11 09:35:00;;;;;;;20.85;4.90;;;;;;;12.37;100.00;102591.25;5008561;28;20036;-62
2022/10/11 09:37:42;;;;;;;20.60;5.43;;;;;;;13.11;100.00;102594.75;5010537;28;20049;-62
2022/10/11 09:40:37;;;;;;;20.60;5.35;;;;;;;14.01;100.00;102597.41;5071131;28;20024;-61
2022/10/11 09:43:02;;;;;;;22.02;4.80;;;;;;;14.63;100.00;102594.03;5070375;28;20095;-61
2022/10/11 09:45:28;;;;;;;19.58;5.20;;;;;;;15.05;100.00;102605.28;5073306;28;20024;-61
2022/10/11 09:47:55;;;;;;;19.13;4.68;;;;;;;15.34;100.00;102592.34;5073002;28;20048;-62
2022/10/11 09:50:28;;;;;;;19.50;4.82;;;;;;;15.95;100.00;102592.16;5073020;28;20032;-62
2022/10/11 09:52:56;;;;;;;19.98;5.28;;;;;;;17.25;100.00;102598.41;5073002;28;20438;-63
2022/10/11 09:55:52;;;;;;;19.80;4.43;;;;;;;17.77;100.00;102597.69;5072988;28;20043;-61
2022/10/11 09:58:30;;;;;;;21.70;3.88;;;;;;;18.43;100.00;102600.44;5071268;28;20048;-62
2022/10/11 10:01:26;;;;;;;18.38;4.32;;;;;;;19.36;100.00;102594.88;5071585;28;20032;-62
2022/10/11 10:04:13;;;;;;;19.90;4.15;;;;;;;19.79;100.00;102597.34;4993365;28;20057;-63
2022/10/11 10:06:41;;;;;;;18.70;4.05;;;;;;;20.50;81.57;102594.13;4990365;28;20080;-64
2022/10/11 10:09:28;;;;;;;20.48;4.10;;;;;;;21.61;81.23;102596.44;4991222;28;20050;-62
2022/10/11 10:11:55;;;;;;;20.15;4.28;;;;;;;22.31;54.73;102593.53;4992328;28;20393;-62
2022/10/11 10:14:30;;;;;;;16.67;3.40;;;;;;;22.36;44.80;102602.47;4990933;28;20416;-62
2022/10/11 10:17:14;;;;;;;16.05;2.88;;;;;;;22.70;42.23;102601.84;4994775;28;20101;-62
2022/10/11 10:20:00;;;;;;;19.80;3.30;;;;;;;23.25;45.98;102600.78;4989591;28;20094;-62
2022/10/11 10:22:29;;;;;;;15.95;3.33;;;;;;;24.01;37.50;102594.59;4990788;28;20031;-63
2022/10/11 10:24:57;;;;;;;17.45;3.05;;;;;;;24.57;36.59;102590.44;4992320;28;20034;-63
2022/10/11 10:27:25;;;;;;;16.17;2.60;;;;;;;24.88;34.88;102595.03;4990118;28;20462;-63
2022/10/11 10:30:02;;;;;;;18.50;3.05;;;;;;;25.20;37.90;102585.09;4991094;28;20033;-62
2022/10/11 10:32:58;;;;;;;16.73;3.35;;;;;;;24.52;38.07;102586.97;4990837;28;20117;-62
2022/10/11 10:35:48;;;;;;;17.45;3.13;;;;;;;25.22;35.51;102584.13;4989827;28;20034;-63
2022/10/11 10:38:21;;;;;;;14.65;2.85;;;;;;;26.03;32.11;102585.22;4990634;28;20038;-62
2022/10/11 10:40:49;;;;;;;16.90;2.90;;;;;;;26.69;31.24;102592.91;5050437;28;20106;-64
2022/10/11 10:43:27;;;;;;;18.65;2.92;;;;;;;26.50;29.88;102587.22;5072003;28;20446;-65
2022/10/11 10:46:31;;;;;;;15.38;2.75;;;;;;;26.62;32.77;102591.34;5072256;28;20028;-65
2022/10/11 10:49:10;;;;;;;14.02;2.70;;;;;;;26.79;30.95;102583.53;5010024;28;20050;-65
2022/10/11 10:52:04;;;;;;;16.85;2.70;;;;;;;26.41;30.43;102588.44;5009775;28;20108;-64
2022/10/11 10:54:57;;;;;;;17.35;2.88;;;;;;;27.09;29.32;102588.72;5008743;28;20512;-65
2022/10/11 10:57:39;;;;;;;13.90;2.70;;;;;;;27.28;30.08;102582.59;5009776;28;20575;-65
2022/10/11 11:00:18;;;;;;;16.40;2.97;;;;;;;27.56;29.82;102578.81;5010101;28;20030;-63
2022/10/11 11:02:53;;;;;;;15.10;2.70;;;;;;;28.20;27.76;102577.13;5010022;28;20040;-63
2022/10/11 11:05:44;;;;;;;16.33;2.58;;;;;;;29.02;29.05;102574.38;5007180;28;20600;-63
2022/10/11 11:08:24;;;;;;;16.42;2.63;;;;;;;28.57;26.12;102572.75;5008803;28;20110;-63
2022/10/11 11:10:58;;;;;;;16.60;2.67;;;;;;;28.33;26.54;102570.19;5006738;28;20046;-64
2022/10/11 11:13:49;;;;;;;16.83;2.60;;;;;;;28.75;28.45;102571.97;5009950;28;20037;-63
2022/10/11 11:16:30;;;;;;;15.63;2.80;;;;;;;28.71;25.71;102569.47;5009482;28;20050;-64
2022/10/11 11:19:27;;;;;;;14.77;2.67;;;;;;;28.83;27.55;102569.78;5007427;28;20042;-62
2022/10/11 11:22:25;;;;;;;16.13;2.78;;;;;;;29.76;27.24;102569.97;5008809;28;20026;-62
2022/10/11 11:24:53;;;;;;;16.83;2.70;;;;;;;29.93;25.12;102555.50;4999497;28;20049;-62
2022/10/11 11:27:21;;;;;;;14.02;2.78;;;;;;;29.28;25.60;102562.28;5029001;28;20152;-62
2022/10/11 11:29:49;;;;;;;17.17;2.88;;;;;;;29.94;25.51;102557.28;5029358;28;20029;-63
2022/10/11 11:32:33;;;;;;;16.17;2.97;;;;;;;29.89;25.37;102550.22;5029162;28;20044;-63